createdAt,value
2018-05-03T00:00:22.831Z,10.13
2018-05-03T00:02:51.291Z,6.23
2018-05-03T00:05:18.960Z,5.73
2018-05-03T00:07:46.795Z,8.57
2018-05-03T00:10:14.456Z,9.00
2018-05-03T00:12:42.148Z,6.50
2018-05-03T00:15:09.772Z,8.00
2018-05-03T00:17:37.375Z,10.53
2018-05-03T00:20:05.033Z,9.10
2018-05-03T00:22:32.665Z,9.93
2018-05-03T00:25:00.336Z,9.37
2018-05-03T00:27:27.990Z,10.30
2018-05-03T00:29:55.660Z,7.40
2018-05-03T00:32:23.313Z,11.60
2018-05-03T00:34:50.984Z,6.70
2018-05-03T00:37:18.620Z,8.63
2018-05-03T00:39:46.260Z,7.60
2018-05-03T00:42:13.864Z,10.80
2018-05-03T00:44:41.505Z,9.90
2018-05-03T00:47:09.156Z,9.10
2018-05-03T00:49:36.764Z,10.73
2018-05-03T00:52:04.448Z,7.93
2018-05-03T00:54:44.756Z,8.90
2018-05-03T00:57:12.436Z,10.47
2018-05-03T00:59:40.058Z,8.80
2018-05-03T01:02:07.705Z,8.77
2018-05-03T01:04:36.123Z,8.33
2018-05-03T01:07:03.779Z,7.50
2018-05-03T01:09:31.419Z,10.57
2018-05-03T01:11:59.048Z,8.03
2018-05-03T01:14:26.712Z,10.20
2018-05-03T01:16:54.365Z,9.20
2018-05-03T01:19:21.980Z,8.23
2018-05-03T01:21:49.616Z,9.50
2018-05-03T01:24:17.998Z,8.47
2018-05-03T01:26:45.669Z,8.77
2018-05-03T01:29:13.391Z,8.90
2018-05-03T01:31:41.015Z,8.50
2018-05-03T01:34:08.672Z,9.93
2018-05-03T01:36:36.273Z,8.40
2018-05-03T01:39:04.121Z,8.50
2018-05-03T01:41:31.732Z,12.50
2018-05-03T01:44:00.180Z,16.80
2018-05-03T01:46:27.965Z,8.80
2018-05-03T01:48:56.424Z,8.10
2018-05-03T01:51:24.176Z,9.70
2018-05-03T01:53:51.780Z,7.60
2018-05-03T01:56:20.192Z,9.67
2018-05-03T01:58:47.820Z,8.77
2018-05-03T02:01:16.260Z,9.17
2018-05-03T02:03:43.892Z,9.30
2018-05-03T02:06:11.545Z,9.33
2018-05-03T02:08:39.345Z,9.23
2018-05-03T02:11:06.983Z,10.47
2018-05-03T02:13:34.773Z,10.77
2018-05-03T02:16:02.462Z,9.80
2018-05-03T02:18:30.236Z,9.90
2018-05-03T02:20:57.878Z,14.63
2018-05-03T02:23:25.625Z,11.03
2018-05-03T02:25:53.389Z,11.47
2018-05-03T02:28:21.154Z,10.57
2018-05-03T02:30:48.817Z,10.17
2018-05-03T02:33:16.599Z,11.00
2018-05-03T02:35:44.228Z,11.27
2018-05-03T02:38:11.910Z,11.47
2018-05-03T02:40:39.591Z,12.30
2018-05-03T02:43:07.239Z,10.70
2018-05-03T02:45:34.852Z,12.97
2018-05-03T02:48:03.305Z,14.90
2018-05-03T02:50:30.984Z,14.17
2018-05-03T02:52:59.368Z,10.97
2018-05-03T02:55:27.797Z,12.00
2018-05-03T02:58:12.867Z,11.53
2018-05-03T03:00:58.237Z,13.17
2018-05-03T03:03:43.549Z,13.27
2018-05-03T03:06:29.156Z,11.50
2018-05-03T03:09:15.399Z,12.07
2018-05-03T03:11:57.559Z,12.23
2018-05-03T03:14:43.652Z,13.27
2018-05-03T03:17:29.765Z,12.10
2018-05-03T03:20:15.018Z,12.17
2018-05-03T03:23:01.040Z,12.57
2018-05-03T03:29:19.155Z,12.37
2018-05-03T03:32:04.377Z,13.10
2018-05-03T03:34:32.068Z,12.73
2018-05-03T03:37:26.393Z,11.73
2018-05-03T03:40:11.761Z,11.90
2018-05-03T03:45:42.921Z,12.50
2018-05-03T03:48:10.690Z,12.33
2018-05-03T03:50:38.320Z,12.80
2018-05-03T03:53:05.984Z,12.63
2018-05-03T03:55:33.673Z,11.97
2018-05-03T03:58:01.293Z,12.77
2018-05-03T04:00:29.002Z,12.73
2018-05-03T04:02:57.431Z,12.07
2018-05-03T04:05:25.092Z,12.37
2018-05-03T04:07:52.814Z,11.77
2018-05-03T04:10:21.200Z,12.23
2018-05-03T04:12:49.744Z,12.37
2018-05-03T04:15:17.432Z,12.13
2018-05-03T04:17:57.150Z,11.83
2018-05-03T04:20:40.785Z,12.40
2018-05-03T04:23:16.539Z,12.40
2018-05-03T04:25:56.284Z,11.87
2018-05-03T04:28:25.070Z,11.77
2018-05-03T04:30:54.725Z,11.87
2018-05-03T04:33:23.163Z,10.97
2018-05-03T04:35:50.785Z,11.63
2018-05-03T04:38:19.184Z,12.23
2018-05-03T04:40:46.966Z,12.00
2018-05-03T04:43:14.761Z,12.03
2018-05-03T04:45:43.170Z,12.97
2018-05-03T04:48:11.586Z,11.73
2018-05-03T04:50:39.294Z,12.00
2018-05-03T04:53:07.077Z,12.13
2018-05-03T04:55:35.602Z,11.67
2018-05-03T04:58:03.296Z,12.90
2018-05-03T05:00:30.961Z,11.63
2018-05-03T05:02:59.542Z,12.30
2018-05-03T05:05:28.097Z,11.23
2018-05-03T05:07:55.864Z,12.63
2018-05-03T05:10:23.629Z,10.93
2018-05-03T05:12:51.252Z,11.43
2018-05-03T05:15:18.920Z,10.77
2018-05-03T05:17:47.479Z,11.70
2018-05-03T05:20:15.864Z,11.57
2018-05-03T05:22:43.618Z,11.00
2018-05-03T05:25:12.166Z,10.80
2018-05-03T05:27:40.025Z,11.40
2018-05-03T05:30:07.896Z,11.67
2018-05-03T05:32:35.541Z,11.20
2018-05-03T05:35:03.161Z,11.70
2018-05-03T05:37:31.699Z,11.23
2018-05-03T05:39:59.388Z,12.17
2018-05-03T05:42:28.590Z,12.00
2018-05-03T05:44:56.260Z,12.20
2018-05-03T05:47:24.642Z,11.07
2018-05-03T05:49:53.107Z,12.77
2018-05-03T05:52:20.772Z,10.50
2018-05-03T05:54:48.412Z,12.03
2018-05-03T05:57:16.200Z,11.33
2018-05-03T05:59:43.871Z,14.07
2018-05-03T06:02:11.520Z,13.80
2018-05-03T06:04:39.280Z,11.60
2018-05-03T06:07:07.129Z,11.30
2018-05-03T06:09:34.813Z,11.03
2018-05-03T06:12:02.556Z,12.23
2018-05-03T06:14:30.235Z,11.97
2018-05-03T06:16:57.878Z,13.57
2018-05-03T06:19:25.645Z,12.07
2018-05-03T06:21:53.512Z,11.67
2018-05-03T06:24:21.382Z,11.53
2018-05-03T06:26:49.248Z,14.57
2018-05-03T06:29:16.961Z,11.57
2018-05-03T06:31:45.496Z,12.03
2018-05-03T06:34:13.289Z,12.77
2018-05-03T06:36:41.129Z,13.80
2018-05-03T06:39:08.751Z,16.43
2018-05-03T06:41:37.298Z,11.73
2018-05-03T06:44:05.141Z,12.70
2018-05-03T06:46:32.920Z,12.97
2018-05-03T06:49:00.583Z,14.10
2018-05-03T06:51:28.201Z,11.93
2018-05-03T06:53:56.025Z,12.47
2018-05-03T06:56:23.857Z,11.87
2018-05-03T06:58:51.487Z,11.83
2018-05-03T07:01:19.287Z,11.83
2018-05-03T07:03:47.150Z,11.80
2018-05-03T07:06:14.878Z,11.33
2018-05-03T07:08:42.578Z,11.40
2018-05-03T07:11:10.304Z,11.13
2018-05-03T07:13:38.744Z,11.07
2018-05-03T07:16:06.369Z,13.00
2018-05-03T07:18:34.149Z,11.37
2018-05-03T07:21:01.916Z,10.70
2018-05-03T07:23:29.709Z,12.43
2018-05-03T07:25:57.548Z,14.77
2018-05-03T07:28:25.172Z,10.97
2018-05-03T07:30:52.974Z,15.00
2018-05-03T07:33:20.671Z,12.57
2018-05-03T07:35:48.327Z,11.03
2018-05-03T07:38:17.444Z,11.33
2018-05-03T07:40:46.009Z,12.57
2018-05-03T07:43:13.673Z,11.20
2018-05-03T07:45:41.402Z,12.17
2018-05-03T07:48:09.070Z,12.73
2018-05-03T07:50:36.679Z,10.87
2018-05-03T07:53:05.207Z,11.73
2018-05-03T07:55:33.023Z,11.63
2018-05-03T07:58:01.663Z,10.93
2018-05-03T08:00:29.428Z,10.87
2018-05-03T08:02:57.204Z,10.60
2018-05-03T08:05:24.911Z,12.33
2018-05-03T08:07:53.477Z,11.33
2018-05-03T08:10:21.095Z,11.33
2018-05-03T08:12:48.729Z,10.97
2018-05-03T08:15:16.529Z,10.47
2018-05-03T08:17:44.190Z,11.27
2018-05-03T08:20:11.837Z,10.63
2018-05-03T08:22:39.619Z,11.17
2018-05-03T08:25:07.328Z,12.37
2018-05-03T08:27:35.864Z,11.07
2018-05-03T08:30:03.560Z,12.37
2018-05-03T08:32:31.174Z,11.37
2018-05-03T08:34:59.766Z,10.37
2018-05-03T08:37:27.577Z,10.47
2018-05-03T08:39:56.032Z,10.87
2018-05-03T08:42:23.717Z,10.67
2018-05-03T08:44:51.446Z,10.53
2018-05-03T08:47:19.111Z,13.17
2018-05-03T08:49:46.728Z,12.80
2018-05-03T08:52:15.108Z,11.67
2018-05-03T08:54:43.666Z,10.80
2018-05-03T08:57:11.314Z,11.47
2018-05-03T08:59:38.939Z,10.93
2018-05-03T09:02:06.823Z,10.73
2018-05-03T09:04:34.694Z,11.03
2018-05-03T09:07:03.167Z,10.67
2018-05-03T09:09:31.041Z,10.90
2018-05-03T09:11:58.692Z,10.83
2018-05-03T09:14:26.376Z,12.23
2018-05-03T09:16:54.169Z,10.97
2018-05-03T09:19:22.646Z,11.00
2018-05-03T09:21:50.404Z,11.23
2018-05-03T09:24:18.096Z,11.03
2018-05-03T09:26:46.566Z,11.10
2018-05-03T09:29:14.386Z,11.10
2018-05-03T09:31:42.049Z,10.77
2018-05-03T09:34:09.814Z,12.93
2018-05-03T09:36:37.680Z,11.23
2018-05-03T09:39:05.620Z,10.70
2018-05-03T09:41:33.341Z,10.73
2018-05-03T09:44:00.979Z,10.80
2018-05-03T09:46:28.594Z,11.10
2018-05-03T09:48:57.220Z,10.47
2018-05-03T09:51:24.892Z,10.73
2018-05-03T09:53:52.752Z,11.60
2018-05-03T09:56:20.409Z,12.53
2018-05-03T09:58:48.173Z,10.23
2018-05-03T10:01:15.942Z,11.03
2018-05-03T10:03:43.566Z,11.03
2018-05-03T10:06:12.104Z,12.37
2018-05-03T10:08:39.952Z,11.27
2018-05-03T10:11:07.820Z,13.30
2018-05-03T10:13:35.481Z,10.97
2018-05-03T10:16:03.139Z,10.83
2018-05-03T10:18:30.909Z,10.40
2018-05-03T10:20:58.778Z,10.87
2018-05-03T10:23:26.412Z,10.57
2018-05-03T10:25:54.204Z,11.20
2018-05-03T10:28:21.993Z,11.50
2018-05-03T10:30:50.376Z,11.67
2018-05-03T10:33:18.212Z,10.87
2018-05-03T10:35:45.961Z,11.37
2018-05-03T10:38:13.555Z,11.00
2018-05-03T10:40:41.332Z,11.20
2018-05-03T10:43:09.069Z,12.50
2018-05-03T10:45:36.747Z,12.10
2018-05-03T10:48:04.518Z,11.87
2018-05-03T10:50:32.371Z,11.60
2018-05-03T10:53:00.239Z,11.07
2018-05-03T10:55:27.940Z,11.33
2018-05-03T10:57:56.378Z,11.80
2018-05-03T11:00:24.255Z,11.87
2018-05-03T11:02:51.917Z,11.33
2018-05-03T11:05:21.387Z,11.43
2018-05-03T11:07:49.103Z,11.13
2018-05-03T11:10:17.657Z,10.77
2018-05-03T11:12:45.278Z,11.70
2018-05-03T11:15:13.695Z,14.07
2018-05-03T11:17:41.404Z,10.33
2018-05-03T11:20:09.942Z,12.27
2018-05-03T11:22:37.707Z,15.27
2018-05-03T11:25:05.472Z,10.53
2018-05-03T11:27:33.169Z,11.60
2018-05-03T11:30:00.840Z,10.67
2018-05-03T11:32:28.492Z,11.73
2018-05-03T11:34:56.131Z,14.10
2018-05-03T11:37:23.789Z,10.07
2018-05-03T11:39:51.550Z,9.80
2018-05-03T11:42:19.225Z,10.67
2018-05-03T11:44:46.877Z,10.03
2018-05-03T11:47:14.668Z,12.40
2018-05-03T11:49:42.433Z,10.47
2018-05-03T11:52:10.987Z,10.07
2018-05-03T11:54:38.636Z,10.47
2018-05-03T11:57:06.414Z,10.60
2018-05-03T11:59:34.080Z,11.50
2018-05-03T12:02:01.845Z,11.23
2018-05-03T12:04:29.524Z,11.50
2018-05-03T12:06:57.301Z,12.00
2018-05-03T12:09:24.916Z,10.93
2018-05-03T12:11:52.773Z,12.00
2018-05-03T12:14:20.408Z,10.77
2018-05-03T12:16:48.824Z,10.80
2018-05-03T12:19:16.491Z,10.97
2018-05-03T12:21:44.139Z,12.87
2018-05-03T12:24:11.775Z,11.27
2018-05-03T12:26:40.173Z,11.40
2018-05-03T12:29:07.974Z,11.43
2018-05-03T12:31:35.608Z,11.27
2018-05-03T12:34:03.304Z,11.60
2018-05-03T12:36:30.955Z,10.90
2018-05-03T12:38:58.754Z,12.37
2018-05-03T12:41:27.337Z,13.40
2018-05-03T12:43:55.070Z,10.63
2018-05-03T12:46:22.835Z,11.53
2018-05-03T12:48:50.599Z,11.73
2018-05-03T12:51:18.248Z,12.53
2018-05-03T12:53:45.873Z,12.70
2018-05-03T12:56:14.508Z,12.77
2018-05-03T12:58:42.275Z,12.03
2018-05-03T13:01:10.147Z,12.27
2018-05-03T13:03:37.824Z,12.53
2018-05-03T13:06:05.493Z,12.10
2018-05-03T13:08:33.242Z,12.20
2018-05-03T13:11:01.085Z,12.47
2018-05-03T13:13:28.702Z,10.50
2018-05-03T13:15:57.344Z,12.23
2018-05-03T13:18:24.977Z,11.90
2018-05-03T13:20:52.599Z,12.33
2018-05-03T13:23:20.364Z,12.80
2018-05-03T13:25:48.896Z,12.10
2018-05-03T13:28:16.788Z,12.33
2018-05-03T13:30:44.676Z,14.23
2018-05-03T13:33:12.450Z,12.23
2018-05-03T13:35:40.080Z,12.07
2018-05-03T13:38:07.755Z,14.03
2018-05-03T13:40:35.406Z,12.80
2018-05-03T13:43:03.196Z,12.43
2018-05-03T13:45:31.676Z,11.40
2018-05-03T13:47:59.300Z,12.80
2018-05-03T13:50:27.176Z,12.27
2018-05-03T13:52:54.804Z,13.20
2018-05-03T13:55:22.514Z,12.63
2018-05-03T13:57:50.172Z,12.50
2018-05-03T14:00:17.941Z,12.70
2018-05-03T14:02:45.633Z,12.53
2018-05-03T14:05:14.090Z,13.33
2018-05-03T14:07:41.766Z,13.60
2018-05-03T14:10:11.036Z,13.00
2018-05-03T14:12:38.695Z,13.47
2018-05-03T14:15:06.376Z,12.37
2018-05-03T14:17:34.053Z,13.13
2018-05-03T14:20:01.787Z,12.03
2018-05-03T14:22:29.551Z,12.87
2018-05-03T14:24:57.240Z,14.43
2018-05-03T14:27:24.875Z,12.57
2018-05-03T14:29:52.642Z,13.07
2018-05-03T14:32:20.348Z,12.43
2018-05-03T14:34:48.780Z,12.03
2018-05-03T14:37:16.551Z,13.30
2018-05-03T14:39:44.315Z,12.83
2018-05-03T14:42:11.983Z,12.63
2018-05-03T14:44:39.652Z,13.43
2018-05-03T14:47:07.302Z,13.77
2018-05-03T14:49:34.961Z,13.20
2018-05-03T14:52:02.729Z,13.50
2018-05-03T14:54:30.340Z,11.93
2018-05-03T14:56:58.876Z,13.47
2018-05-03T14:59:26.606Z,12.43
2018-05-03T15:01:54.342Z,11.90
2018-05-03T15:04:22.900Z,11.37
2018-05-03T15:06:50.649Z,11.50
2018-05-03T15:09:18.286Z,11.07
2018-05-03T15:11:45.942Z,11.97
2018-05-03T15:14:13.610Z,12.47
2018-05-03T15:16:41.437Z,11.87
2018-05-03T15:19:09.169Z,11.70
2018-05-03T15:21:36.844Z,11.57
2018-05-03T15:24:04.516Z,11.50
2018-05-03T15:26:32.289Z,10.87
2018-05-03T15:29:00.118Z,11.30
2018-05-03T15:31:27.886Z,12.00
2018-05-03T15:33:55.747Z,11.10
2018-05-03T15:36:23.415Z,10.23
2018-05-03T15:38:51.112Z,11.07
2018-05-03T15:41:18.819Z,10.33
2018-05-03T15:43:46.492Z,9.63
2018-05-03T15:46:14.161Z,9.47
2018-05-03T15:48:41.865Z,9.27
2018-05-03T15:51:09.630Z,7.93
2018-05-03T15:53:37.461Z,8.20
2018-05-03T15:56:05.085Z,7.47
2018-05-03T15:58:33.545Z,7.43
2018-05-03T16:01:01.201Z,9.27
2018-05-03T16:03:30.390Z,6.50
2018-05-03T16:05:58.136Z,6.90
2018-05-03T16:08:25.899Z,6.67
2018-05-03T16:10:53.556Z,6.17
2018-05-03T16:13:21.321Z,5.40
2018-05-03T16:15:49.015Z,7.77
2018-05-03T16:18:17.567Z,6.97
2018-05-03T16:20:45.231Z,9.67
2018-05-03T16:23:12.946Z,8.90
2018-05-03T16:25:41.368Z,7.80
2018-05-03T16:28:09.073Z,11.90
2018-05-03T16:30:37.556Z,11.13
2018-05-03T16:33:05.950Z,10.90
2018-05-03T16:35:34.417Z,12.07
2018-05-03T16:38:02.182Z,11.17
2018-05-03T16:40:30.721Z,11.93
2018-05-03T16:42:58.367Z,10.50
2018-05-03T16:45:26.154Z,9.03
2018-05-03T16:47:53.922Z,9.03
2018-05-03T16:50:21.580Z,10.00
2018-05-03T16:52:49.244Z,9.57
2018-05-03T16:55:17.009Z,8.33
2018-05-03T16:57:44.785Z,8.03
2018-05-03T17:00:12.467Z,8.07
2018-05-03T17:02:40.233Z,8.10
2018-05-03T17:05:07.964Z,9.37
2018-05-03T17:07:35.831Z,8.43
2018-05-03T17:10:03.498Z,8.20
2018-05-03T17:12:31.115Z,9.07
2018-05-03T17:14:59.637Z,9.40
2018-05-03T17:17:27.507Z,8.83
2018-05-03T17:19:55.272Z,10.83
2018-05-03T17:22:22.883Z,8.83
2018-05-03T17:24:51.340Z,10.00
2018-05-03T17:27:18.947Z,12.00
2018-05-03T17:29:46.656Z,11.50
2018-05-03T17:32:14.503Z,10.77
2018-05-03T17:34:42.272Z,11.40
2018-05-03T17:37:10.136Z,13.83
2018-05-03T17:39:37.772Z,11.73
2018-05-03T17:42:06.313Z,12.07
2018-05-03T17:44:34.801Z,12.13
2018-05-03T17:47:03.386Z,12.07
2018-05-03T17:49:31.970Z,12.77
2018-05-03T17:52:00.391Z,12.93
2018-05-03T17:54:28.076Z,11.97
2018-05-03T17:56:55.853Z,12.83
2018-05-03T17:59:23.537Z,12.27
2018-05-03T18:01:51.197Z,12.30
2018-05-03T18:04:18.845Z,11.37
2018-05-03T18:06:46.624Z,11.23
2018-05-03T18:09:14.256Z,12.47
2018-05-03T18:11:41.899Z,12.60
2018-05-03T18:14:09.577Z,11.30
2018-05-03T18:16:40.475Z,13.40
2018-05-03T18:19:09.203Z,12.47
2018-05-03T18:21:36.971Z,12.20
2018-05-03T18:24:04.608Z,13.37
2018-05-03T18:26:32.399Z,11.80
2018-05-03T18:29:00.093Z,12.43
2018-05-03T18:31:27.854Z,15.43
2018-05-03T18:33:56.315Z,12.27
2018-05-03T18:36:24.023Z,12.87
2018-05-03T18:38:52.657Z,12.63
2018-05-03T18:41:20.289Z,12.67
2018-05-03T18:43:48.026Z,14.17
2018-05-03T18:46:15.792Z,13.27
2018-05-03T18:48:44.201Z,13.50
2018-05-03T18:51:12.100Z,13.90
2018-05-03T18:53:39.731Z,13.63
2018-05-03T18:56:07.388Z,13.47
2018-05-03T18:58:35.237Z,13.33
2018-05-03T19:01:02.972Z,12.23
2018-05-03T19:03:30.599Z,13.10
2018-05-03T19:05:58.374Z,14.07
2018-05-03T19:08:26.242Z,12.93
2018-05-03T19:10:53.911Z,12.70
2018-05-03T19:13:21.817Z,13.57
2018-05-03T19:15:49.424Z,13.10
2018-05-03T19:18:17.207Z,12.80
2018-05-03T19:20:45.096Z,12.90
2018-05-03T19:23:12.679Z,12.80
2018-05-03T19:25:41.312Z,13.37
2018-05-03T19:28:09.078Z,12.80
2018-05-03T19:30:36.782Z,10.00
2018-05-03T19:33:05.427Z,9.90
2018-05-03T19:35:33.056Z,8.53
2018-05-03T19:38:00.847Z,11.07
2018-05-03T19:40:28.457Z,8.73
2018-05-03T19:42:56.896Z,7.10
2018-05-03T19:45:24.592Z,9.53
2018-05-03T19:47:53.020Z,6.70
2018-05-03T19:50:20.959Z,8.90
2018-05-03T19:52:48.702Z,5.80
2018-05-03T19:55:16.540Z,6.10
2018-05-03T19:57:44.155Z,5.93
2018-05-03T20:00:12.572Z,5.73
2018-05-03T20:02:40.286Z,7.83
2018-05-03T20:05:07.949Z,6.23
2018-05-03T20:07:36.369Z,8.70
2018-05-03T20:10:03.995Z,5.00
2018-05-03T20:12:32.627Z,4.90
2018-05-03T20:15:00.267Z,4.53
2018-05-03T20:17:28.132Z,5.20
2018-05-03T20:19:55.795Z,6.03
2018-05-03T20:22:23.586Z,4.10
2018-05-03T20:24:51.285Z,4.33
2018-05-03T20:27:18.965Z,4.77
2018-05-03T20:29:47.404Z,5.07
2018-05-03T20:32:15.004Z,4.77
2018-05-03T20:34:43.408Z,7.43
2018-05-03T20:37:11.195Z,6.40
2018-05-03T20:39:38.901Z,4.93
2018-05-03T20:42:06.495Z,5.63
2018-05-03T20:44:34.321Z,9.50
2018-05-03T20:47:01.969Z,6.00
2018-05-03T20:49:29.579Z,8.87
2018-05-03T20:51:57.421Z,5.30
2018-05-03T20:54:25.262Z,7.63
2018-05-03T20:56:53.105Z,7.67
2018-05-03T20:59:20.707Z,9.83
2018-05-03T21:01:48.641Z,8.63
2018-05-03T21:04:16.553Z,6.53
2018-05-03T21:06:45.025Z,13.00
2018-05-03T21:09:12.644Z,7.70
2018-05-03T21:11:40.413Z,5.80
2018-05-03T21:14:08.197Z,6.97
2018-05-03T21:16:36.046Z,8.23
2018-05-03T21:19:03.913Z,6.97
2018-05-03T21:21:31.525Z,6.87
2018-05-03T21:23:59.191Z,6.90
2018-05-03T21:26:27.868Z,6.57
2018-05-03T21:28:56.319Z,17.40
2018-05-03T21:31:24.072Z,7.77
2018-05-03T21:33:51.940Z,6.50
2018-05-03T21:36:19.701Z,7.53
2018-05-03T21:38:47.383Z,4.57
2018-05-03T21:41:15.126Z,6.47
2018-05-03T21:43:42.747Z,6.40
2018-05-03T21:46:11.203Z,5.27
2018-05-03T21:48:38.829Z,10.97
2018-05-03T21:51:06.481Z,3.13
2018-05-03T21:53:34.115Z,6.33
2018-05-03T21:56:01.804Z,6.10
2018-05-03T21:58:29.607Z,5.13
2018-05-03T22:00:57.277Z,6.47
2018-05-03T22:03:25.723Z,4.77
2018-05-03T22:05:53.366Z,3.33
2018-05-03T22:08:20.975Z,4.10
2018-05-03T22:10:48.816Z,4.83
2018-05-03T22:13:16.431Z,4.27
2018-05-03T22:15:44.804Z,2.67
2018-05-03T22:18:13.260Z,4.47
2018-05-03T22:20:41.656Z,3.27
2018-05-03T22:23:09.293Z,5.93
2018-05-03T22:25:37.081Z,5.20
2018-05-03T22:28:05.499Z,3.53
2018-05-03T22:30:33.199Z,3.63
2018-05-03T22:33:01.056Z,5.17
2018-05-03T22:35:28.705Z,3.37
2018-05-03T22:37:56.484Z,3.67
2018-05-03T22:40:24.098Z,4.00
2018-05-03T22:42:52.624Z,3.63
2018-05-03T22:45:20.494Z,4.27
2018-05-03T22:47:48.108Z,5.10
2018-05-03T22:50:16.742Z,5.33
2018-05-03T22:52:44.394Z,4.20
2018-05-03T22:55:12.056Z,3.70
2018-05-03T22:57:39.831Z,2.93
2018-05-03T23:00:07.592Z,5.87
2018-05-03T23:02:35.301Z,3.77
2018-05-03T23:05:03.839Z,3.60
2018-05-03T23:07:31.627Z,4.37
2018-05-03T23:09:59.368Z,3.90
2018-05-03T23:12:27.164Z,2.67
2018-05-03T23:14:54.772Z,6.07
2018-05-03T23:17:22.488Z,2.43
2018-05-03T23:19:50.181Z,5.50
2018-05-03T23:22:17.795Z,3.23
2018-05-03T23:24:45.455Z,3.30
2018-05-03T23:27:13.208Z,3.43
2018-05-03T23:29:40.877Z,5.33
2018-05-03T23:32:08.564Z,1.73
2018-05-03T23:34:37.700Z,4.20
2018-05-03T23:37:05.426Z,10.37
2018-05-03T23:39:33.192Z,5.67
2018-05-03T23:42:01.028Z,4.67
2018-05-03T23:44:28.665Z,3.87
2018-05-03T23:46:56.454Z,2.87
2018-05-03T23:49:24.359Z,5.70
2018-05-03T23:51:52.832Z,4.87
2018-05-03T23:54:20.681Z,3.57
2018-05-03T23:56:48.465Z,2.97
2018-05-03T23:59:16.126Z,2.70
